createdAt,value
2018-07-12T00:01:01.125Z,14.6
2018-07-12T00:06:03.348Z,14.6
2018-07-12T00:11:05.668Z,14.5
2018-07-12T00:16:08.117Z,14.5
2018-07-12T00:21:10.361Z,14.4
2018-07-12T00:26:12.656Z,14.4
2018-07-12T00:31:14.944Z,14.4
2018-07-12T00:36:17.132Z,14.3
2018-07-12T00:41:19.318Z,14.3
2018-07-12T00:46:21.609Z,14.3
2018-07-12T00:51:24.033Z,14.2
2018-07-12T00:56:26.372Z,14.2
2018-07-12T01:01:28.584Z,14.1
2018-07-12T01:06:30.961Z,14.1
2018-07-12T01:11:33.252Z,14
2018-07-12T01:16:35.470Z,13.9
2018-07-12T01:21:37.848Z,13.9
2018-07-12T01:26:40.155Z,13.8
2018-07-12T01:31:42.280Z,13.7
2018-07-12T01:36:44.698Z,13.7
2018-07-12T01:41:46.937Z,13.6
2018-07-12T01:46:49.283Z,13.5
2018-07-12T01:51:51.606Z,13.5
2018-07-12T01:56:53.841Z,13.5
2018-07-12T02:01:56.071Z,13.5
2018-07-12T02:06:58.482Z,13.4
2018-07-12T02:12:00.765Z,13.4
2018-07-12T02:17:03.033Z,13.3
2018-07-12T02:22:05.371Z,13.3
2018-07-12T02:27:07.487Z,13.2
2018-07-12T02:32:09.901Z,13.2
2018-07-12T02:37:12.174Z,13.1
2018-07-12T02:42:14.478Z,13.1
2018-07-12T02:47:16.949Z,13.1
2018-07-12T02:52:19.065Z,13.1
2018-07-12T02:57:21.274Z,13
2018-07-12T03:02:23.597Z,13
2018-07-12T03:07:25.903Z,13
2018-07-12T03:12:28.200Z,13
2018-07-12T03:17:30.459Z,13
2018-07-12T03:22:32.923Z,13
2018-07-12T03:27:35.059Z,13.1
2018-07-12T03:32:37.354Z,13.1
2018-07-12T03:37:39.619Z,13.2
2018-07-12T03:42:42.094Z,13.3
2018-07-12T03:47:44.265Z,13.4
2018-07-12T03:52:46.521Z,13.5
2018-07-12T03:57:49.088Z,13.6
2018-07-12T04:02:51.120Z,13.7
2018-07-12T04:07:53.348Z,13.8
2018-07-12T04:12:55.783Z,13.9
2018-07-12T04:17:57.985Z,14
2018-07-12T04:23:00.314Z,14.1
2018-07-12T04:28:02.633Z,14.1
2018-07-12T04:33:05.007Z,14.1
2018-07-12T04:38:07.124Z,14.2
2018-07-12T04:43:09.541Z,14.3
2018-07-12T04:48:11.726Z,14.3
2018-07-12T04:53:14.153Z,14.4
2018-07-12T04:58:16.446Z,14.5
2018-07-12T05:03:18.742Z,14.6
2018-07-12T05:08:21.021Z,14.7
2018-07-12T05:13:23.237Z,14.9
2018-07-12T05:18:25.557Z,15.1
2018-07-12T05:23:27.786Z,15.3
2018-07-12T05:28:30.218Z,15.4
2018-07-12T05:33:32.458Z,15.6
2018-07-12T05:38:34.694Z,15.8
2018-07-12T05:43:37.119Z,16.1
2018-07-12T05:48:39.383Z,16.200001
2018-07-12T05:53:42.481Z,16.4
2018-07-12T05:58:43.949Z,16.700001
2018-07-12T06:03:46.319Z,16.9
2018-07-12T06:08:48.439Z,17.1
2018-07-12T06:13:50.796Z,17.4
2018-07-12T06:18:53.195Z,17.700001
2018-07-12T06:23:55.447Z,17.9
2018-07-12T06:28:57.687Z,18.200001
2018-07-12T06:34:00.044Z,18.6
2018-07-12T06:39:02.441Z,19.1
2018-07-12T06:44:04.630Z,19.4
2018-07-12T06:49:07.002Z,19.799999
2018-07-12T06:54:09.307Z,19.9
2018-07-12T06:59:11.411Z,19.700001
2018-07-12T07:04:13.739Z,19.9
2018-07-12T07:09:16.232Z,20.299999
2018-07-12T07:14:18.423Z,20.700001
2018-07-12T07:19:20.589Z,21.1
2018-07-12T07:24:22.974Z,21.299999
2018-07-12T07:29:25.361Z,21.5
2018-07-12T07:34:27.502Z,22
2018-07-12T07:39:29.917Z,22.5
2018-07-12T07:44:32.179Z,22.6
2018-07-12T07:49:34.449Z,22.6
2018-07-12T07:54:36.707Z,22.799999
2018-07-12T07:59:39.024Z,22.4
2018-07-12T08:04:41.240Z,22.6
2018-07-12T08:09:43.649Z,23.299999
2018-07-12T08:14:45.868Z,23.6
2018-07-12T08:19:48.272Z,23.799999
2018-07-12T08:24:50.493Z,23.6
2018-07-12T08:29:52.796Z,23.799999
2018-07-12T08:34:55.155Z,23.5
2018-07-12T08:39:57.391Z,23.4
2018-07-12T08:44:59.587Z,23.6
2018-07-12T08:50:01.903Z,24.4
2018-07-12T08:55:04.179Z,24.799999
2018-07-12T09:00:06.534Z,25
2018-07-12T09:05:08.925Z,25.6
2018-07-12T09:10:11.177Z,25.700001
2018-07-12T09:15:13.525Z,25.799999
2018-07-12T09:20:15.832Z,26.200001
2018-07-12T09:25:17.957Z,26.200001
2018-07-12T09:30:20.264Z,26.5
2018-07-12T09:35:22.583Z,26.799999
2018-07-12T09:40:24.854Z,27.1
2018-07-12T09:45:27.158Z,27
2018-07-12T09:50:29.529Z,27.9
2018-07-12T09:55:31.787Z,28.6
2018-07-12T10:00:34.056Z,28.6
2018-07-12T10:05:36.445Z,29.1
2018-07-12T10:10:38.771Z,29.5
2018-07-12T10:15:40.927Z,29.4
2018-07-12T10:20:43.304Z,29.799999
2018-07-12T10:25:45.728Z,29.799999
2018-07-12T10:30:47.868Z,29.799999
2018-07-12T10:35:50.171Z,29.799999
2018-07-12T10:40:52.341Z,29.799999
2018-07-12T10:45:54.777Z,29.6
2018-07-12T10:50:57.094Z,30
2018-07-12T10:55:59.359Z,29.299999
2018-07-12T11:01:01.541Z,29.299999
2018-07-12T11:06:03.978Z,29.700001
2018-07-12T11:11:06.150Z,30.299999
2018-07-12T11:16:08.534Z,30.299999
2018-07-12T11:21:10.864Z,30.6
2018-07-12T11:26:13.113Z,30.200001
2018-07-12T11:31:15.330Z,30.299999
2018-07-12T11:36:17.608Z,30.9
2018-07-12T11:41:19.948Z,31.299999
2018-07-12T11:46:22.253Z,31.200001
2018-07-12T11:51:24.537Z,31.5
2018-07-12T11:56:26.975Z,31.6
2018-07-12T12:01:29.208Z,31.6
2018-07-12T12:06:31.432Z,31.1
2018-07-12T12:11:33.771Z,31.200001
2018-07-12T12:16:36.038Z,31.5
2018-07-12T12:21:38.231Z,31
2018-07-12T12:31:42.879Z,31.6
2018-07-12T12:36:45.218Z,32.099998
2018-07-12T12:41:47.688Z,32.099998
2018-07-12T12:46:49.845Z,32.299999
2018-07-12T12:51:52.049Z,31.4
2018-07-12T12:56:54.377Z,31.799999
2018-07-12T13:01:56.742Z,31.6
2018-07-12T13:06:58.966Z,30.6
2018-07-12T13:12:01.262Z,31.1
2018-07-12T13:17:03.611Z,31.5
2018-07-12T13:22:05.804Z,31.6
2018-07-12T13:27:08.064Z,32.400002
2018-07-12T13:32:10.373Z,32.700001
2018-07-12T13:37:12.789Z,32.599998
2018-07-12T13:42:14.958Z,32.099998
2018-07-12T13:47:17.272Z,30.5
2018-07-12T13:52:19.611Z,30.799999
2018-07-12T13:57:22.106Z,31.299999
2018-07-12T14:02:24.240Z,32.400002
2018-07-12T14:07:26.528Z,32.099998
2018-07-12T14:12:28.878Z,31.700001
2018-07-12T14:17:31.062Z,31.9
2018-07-12T14:22:33.358Z,32.200001
2018-07-12T14:27:35.621Z,32.200001
2018-07-12T14:32:37.999Z,32.299999
2018-07-12T14:37:40.298Z,32.099998
2018-07-12T14:42:42.557Z,31.799999
2018-07-12T14:47:44.989Z,31.6
2018-07-12T14:52:47.141Z,31.799999
2018-07-12T14:57:49.392Z,31.6
2018-07-12T15:02:51.740Z,31.799999
2018-07-12T15:07:54.047Z,31.799999
2018-07-12T15:12:56.256Z,31.799999
2018-07-12T15:17:58.603Z,31.700001
2018-07-12T15:23:01.074Z,31.200001
2018-07-12T15:28:03.304Z,31
2018-07-12T15:33:05.423Z,31
2018-07-12T15:38:07.773Z,30.700001
2018-07-12T15:43:10.107Z,30.299999
2018-07-12T15:48:12.393Z,29.6
2018-07-12T15:53:14.668Z,29.200001
2018-07-12T15:58:16.963Z,28.9
2018-07-12T16:03:19.238Z,28.9
2018-07-12T16:08:21.557Z,28.4
2018-07-12T16:13:23.831Z,28.200001
2018-07-12T16:18:26.221Z,28.299999
2018-07-12T16:23:28.426Z,28.1
2018-07-12T16:28:30.744Z,27.700001
2018-07-12T16:33:33.082Z,27.4
2018-07-12T16:38:35.391Z,27.200001
2018-07-12T16:43:37.575Z,27.200001
2018-07-12T16:48:39.916Z,26.799999
2018-07-12T16:53:42.149Z,26.6
2018-07-12T17:03:47.648Z,25.9
2018-07-12T17:08:49.197Z,25.9
2018-07-12T17:13:51.597Z,25.6
2018-07-12T17:18:53.756Z,25.700001
2018-07-12T17:23:56.070Z,25.299999
2018-07-12T17:28:58.274Z,24.9
2018-07-12T17:34:00.583Z,24.6
2018-07-12T17:39:02.879Z,24.5
2018-07-12T17:44:05.257Z,24.4
2018-07-12T17:49:07.411Z,24.1
2018-07-12T17:54:09.714Z,24
2018-07-12T17:59:11.944Z,23.799999
2018-07-12T18:04:14.529Z,23.4
2018-07-12T18:09:16.844Z,23.299999
2018-07-12T18:14:19.041Z,23.299999
2018-07-12T18:19:21.260Z,23.200001
2018-07-12T18:24:23.498Z,23
2018-07-12T18:29:25.790Z,22.700001
2018-07-12T18:34:28.072Z,22.4
2018-07-12T18:39:30.509Z,22.200001
2018-07-12T18:44:32.642Z,22.1
2018-07-12T18:49:35.118Z,21.799999
2018-07-12T18:54:37.384Z,21.700001
2018-07-12T18:59:39.534Z,21.5
2018-07-12T19:04:41.988Z,21.299999
2018-07-12T19:09:44.212Z,21.1
2018-07-12T19:14:46.449Z,20.799999
2018-07-12T19:19:48.822Z,20.6
2018-07-12T19:24:51.187Z,20.5
2018-07-12T19:29:53.360Z,20.299999
2018-07-12T19:34:55.652Z,20.200001
2018-07-12T19:39:57.882Z,19.9
2018-07-12T19:45:00.400Z,19.700001
2018-07-12T19:50:02.690Z,19.6
2018-07-12T19:55:04.791Z,19.4
2018-07-12T20:00:07.174Z,19.200001
2018-07-12T20:05:09.465Z,19
2018-07-12T20:10:11.649Z,18.9
2018-07-12T20:15:14.124Z,18.700001
2018-07-12T20:20:16.370Z,18.6
2018-07-12T20:25:18.593Z,18.5
2018-07-12T20:30:20.898Z,18.299999
2018-07-12T20:35:23.273Z,18.1
2018-07-12T20:40:25.465Z,18
2018-07-12T20:45:27.767Z,17.799999
2018-07-12T20:50:30.118Z,17.700001
2018-07-12T20:55:32.421Z,17.6
2018-07-12T21:00:34.551Z,17.5
2018-07-12T21:05:36.895Z,17.4
2018-07-12T21:10:39.283Z,17.299999
2018-07-12T21:15:41.549Z,17.1
2018-07-12T21:20:43.814Z,16.9
2018-07-12T21:25:45.997Z,16.799999
2018-07-12T21:30:48.480Z,16.700001
2018-07-12T21:35:50.677Z,16.6
2018-07-12T21:40:53.076Z,16.5
2018-07-12T21:45:55.180Z,16.4
2018-07-12T21:50:57.541Z,16.299999
2018-07-12T21:55:59.895Z,16.200001
2018-07-12T22:01:02.168Z,16.1
2018-07-12T22:06:04.562Z,16
2018-07-12T22:11:06.734Z,15.9
2018-07-12T22:16:09.138Z,15.8
2018-07-12T22:21:11.594Z,15.7
2018-07-12T22:26:13.686Z,15.6
2018-07-12T22:31:15.943Z,15.5
2018-07-12T22:36:18.132Z,15.5
2018-07-12T22:41:20.609Z,15.4
2018-07-12T22:46:22.707Z,15.3
2018-07-12T22:51:25.108Z,15.3
2018-07-12T22:56:27.405Z,15.3
2018-07-12T23:01:29.736Z,15.2
2018-07-12T23:06:31.987Z,15.2
2018-07-12T23:11:34.352Z,15.2
2018-07-12T23:16:36.588Z,15.1
2018-07-12T23:21:38.923Z,15.1
2018-07-12T23:26:41.293Z,15
2018-07-12T23:31:43.453Z,15
2018-07-12T23:36:45.846Z,14.9
2018-07-12T23:41:48.072Z,14.9
2018-07-12T23:46:50.445Z,14.9
2018-07-12T23:51:52.772Z,14.8
2018-07-12T23:56:55.168Z,14.8
